sensor_id;sensor_type;location;lat;lon;timestamp;pressure;altitude;pressure_sealevel;temperature;humidity
70546;BME280;58098;51.680;5.134;2023-11-18T00:01:43;102356.50;;;4.14;100.00
70546;BME280;58098;51.680;5.134;2023-11-18T00:04:09;102369.34;;;4.17;100.00
70546;BME280;58098;51.680;5.134;2023-11-18T00:06:41;102365.88;;;4.18;100.00
70546;BME280;58098;51.680;5.134;2023-11-18T00:09:06;102359.16;;;4.13;100.00
70546;BME280;58098;51.680;5.134;2023-11-18T00:11:32;102365.16;;;4.13;100.00
70546;BME280;58098;51.680;5.134;2023-11-18T00:13:57;102369.41;;;4.16;100.00
70546;BME280;58098;51.680;5.134;2023-11-18T00:16:23;102374.56;;;4.16;100.00
70546;BME280;58098;51.680;5.134;2023-11-18T00:18:48;102359.34;;;4.05;100.00
70546;BME280;58098;51.680;5.134;2023-11-18T00:21:13;102356.91;;;4.00;100.00
70546;BME280;58098;51.680;5.134;2023-11-18T00:23:39;102355.31;;;3.95;100.00
70546;BME280;58098;51.680;5.134;2023-11-18T00:26:04;102368.16;;;3.98;100.00
70546;BME280;58098;51.680;5.134;2023-11-18T00:28:31;102360.56;;;3.92;100.00
70546;BME280;58098;51.680;5.134;2023-11-18T00:30:57;102358.28;;;3.81;100.00
70546;BME280;58098;51.680;5.134;2023-11-18T00:33:22;102349.84;;;3.75;100.00
70546;BME280;58098;51.680;5.134;2023-11-18T00:35:48;102352.53;;;3.72;100.00
70546;BME280;58098;51.680;5.134;2023-11-18T00:38:13;102359.34;;;3.74;100.00
70546;BME280;58098;51.680;5.134;2023-11-18T00:40:38;102335.59;;;3.60;100.00
70546;BME280;58098;51.680;5.134;2023-11-18T00:43:04;102340.81;;;3.59;100.00
70546;BME280;58098;51.680;5.134;2023-11-18T00:45:30;102340.88;;;3.56;100.00
70546;BME280;58098;51.680;5.134;2023-11-18T00:47:55;102343.53;;;3.54;100.00
70546;BME280;58098;51.680;5.134;2023-11-18T00:50:20;102349.59;;;3.52;100.00
70546;BME280;58098;51.680;5.134;2023-11-18T00:52:46;102340.47;;;3.39;100.00
70546;BME280;58098;51.680;5.134;2023-11-18T00:55:15;102363.53;;;3.45;100.00
70546;BME280;58098;51.680;5.134;2023-11-18T00:57:43;102355.03;;;3.41;100.00
70546;BME280;58098;51.680;5.134;2023-11-18T01:00:12;102346.66;;;3.33;100.00
70546;BME280;58098;51.680;5.134;2023-11-18T01:02:47;102355.31;;;3.30;100.00
70546;BME280;58098;51.680;5.134;2023-11-18T01:05:14;102361.22;;;3.34;100.00
70546;BME280;58098;51.680;5.134;2023-11-18T01:07:40;102363.63;;;3.42;100.00
70546;BME280;58098;51.680;5.134;2023-11-18T01:10:06;102348.13;;;3.42;100.00
70546;BME280;58098;51.680;5.134;2023-11-18T01:12:32;102360.78;;;3.51;100.00
70546;BME280;58098;51.680;5.134;2023-11-18T01:14:57;102362.47;;;3.53;100.00
70546;BME280;58098;51.680;5.134;2023-11-18T01:17:23;102354.75;;;3.52;100.00
70546;BME280;58098;51.680;5.134;2023-11-18T01:19:49;102362.19;;;3.64;100.00
70546;BME280;58098;51.680;5.134;2023-11-18T01:22:14;102376.69;;;3.69;100.00
70546;BME280;58098;51.680;5.134;2023-11-18T01:24:40;102368.00;;;3.72;100.00
70546;BME280;58098;51.680;5.134;2023-11-18T01:27:05;102367.22;;;3.70;100.00
70546;BME280;58098;51.680;5.134;2023-11-18T01:29:35;102352.66;;;3.67;100.00
70546;BME280;58098;51.680;5.134;2023-11-18T01:32:00;102373.84;;;3.78;100.00
70546;BME280;58098;51.680;5.134;2023-11-18T01:34:26;102367.91;;;3.75;100.00
70546;BME280;58098;51.680;5.134;2023-11-18T01:36:53;102358.44;;;3.75;100.00
70546;BME280;58098;51.680;5.134;2023-11-18T01:39:18;102359.22;;;3.79;100.00
70546;BME280;58098;51.680;5.134;2023-11-18T01:41:45;102378.75;;;3.89;100.00
70546;BME280;58098;51.680;5.134;2023-11-18T01:44:11;102361.63;;;3.85;100.00
70546;BME280;58098;51.680;5.134;2023-11-18T01:46:39;102365.84;;;3.89;100.00
70546;BME280;58098;51.680;5.134;2023-11-18T01:49:05;102375.19;;;3.93;100.00
70546;BME280;58098;51.680;5.134;2023-11-18T01:51:33;102373.56;;;3.89;100.00
70546;BME280;58098;51.680;5.134;2023-11-18T01:54:00;102389.56;;;4.01;100.00
70546;BME280;58098;51.680;5.134;2023-11-18T01:56:27;102362.19;;;3.96;100.00
70546;BME280;58098;51.680;5.134;2023-11-18T01:58:53;102361.22;;;4.00;100.00
70546;BME280;58098;51.680;5.134;2023-11-18T02:01:19;102373.97;;;4.06;100.00
70546;BME280;58098;51.680;5.134;2023-11-18T02:03:44;102379.88;;;4.11;100.00
70546;BME280;58098;51.680;5.134;2023-11-18T02:06:10;102374.72;;;4.10;100.00
70546;BME280;58098;51.680;5.134;2023-11-18T02:08:36;102363.66;;;4.06;100.00
70546;BME280;58098;51.680;5.134;2023-11-18T02:11:13;102373.03;;;4.09;100.00
70546;BME280;58098;51.680;5.134;2023-11-18T02:13:42;102390.88;;;4.16;100.00
70546;BME280;58098;51.680;5.134;2023-11-18T02:16:12;102376.28;;;4.15;100.00
70546;BME280;58098;51.680;5.134;2023-11-18T02:18:38;102378.81;;;4.17;100.00
70546;BME280;58098;51.680;5.134;2023-11-18T02:21:05;102390.81;;;4.19;100.00
70546;BME280;58098;51.680;5.134;2023-11-18T02:23:33;102389.22;;;4.15;100.00
70546;BME280;58098;51.680;5.134;2023-11-18T02:25:58;102388.19;;;4.21;100.00
70546;BME280;58098;51.680;5.134;2023-11-18T02:28:26;102382.34;;;4.14;100.00
70546;BME280;58098;51.680;5.134;2023-11-18T02:30:55;102379.59;;;4.20;100.00
70546;BME280;58098;51.680;5.134;2023-11-18T02:33:35;102378.75;;;4.20;100.00
70546;BME280;58098;51.680;5.134;2023-11-18T02:36:20;102376.09;;;4.21;100.00
70546;BME280;58098;51.680;5.134;2023-11-18T02:38:50;102377.88;;;4.21;100.00
70546;BME280;58098;51.680;5.134;2023-11-18T02:41:16;102374.50;;;4.17;100.00
70546;BME280;58098;51.680;5.134;2023-11-18T02:43:44;102360.00;;;4.13;100.00
70546;BME280;58098;51.680;5.134;2023-11-18T02:46:11;102375.22;;;4.22;100.00
70546;BME280;58098;51.680;5.134;2023-11-18T02:48:40;102358.94;;;4.20;100.00
70546;BME280;58098;51.680;5.134;2023-11-18T02:51:07;102330.88;;;4.08;100.00
70546;BME280;58098;51.680;5.134;2023-11-18T02:53:33;102334.25;;;4.10;100.00
70546;BME280;58098;51.680;5.134;2023-11-18T02:55:59;102352.91;;;4.20;100.00
70546;BME280;58098;51.680;5.134;2023-11-18T02:58:29;102340.06;;;4.18;100.00
70546;BME280;58098;51.680;5.134;2023-11-18T03:00:54;102338.13;;;4.25;100.00
70546;BME280;58098;51.680;5.134;2023-11-18T03:03:20;102340.72;;;4.25;100.00
70546;BME280;58098;51.680;5.134;2023-11-18T03:05:45;102331.16;;;4.28;100.00
70546;BME280;58098;51.680;5.134;2023-11-18T03:08:13;102304.81;;;4.16;100.00
70546;BME280;58098;51.680;5.134;2023-11-18T03:10:39;102321.88;;;4.21;100.00
70546;BME280;58098;51.680;5.134;2023-11-18T03:13:05;102324.41;;;4.23;100.00
70546;BME280;58098;51.680;5.134;2023-11-18T03:15:31;102326.88;;;4.27;100.00
70546;BME280;58098;51.680;5.134;2023-11-18T03:17:57;102339.69;;;4.30;100.00
70546;BME280;58098;51.680;5.134;2023-11-18T03:20:23;102321.78;;;4.24;100.00
70546;BME280;58098;51.680;5.134;2023-11-18T03:22:50;102326.66;;;4.33;100.00
70546;BME280;58098;51.680;5.134;2023-11-18T03:25:17;102329.25;;;4.33;100.00
70546;BME280;58098;51.680;5.134;2023-11-18T03:27:43;102322.56;;;4.26;100.00
70546;BME280;58098;51.680;5.134;2023-11-18T03:30:10;102309.66;;;4.26;100.00
70546;BME280;58098;51.680;5.134;2023-11-18T03:32:36;102328.38;;;4.34;100.00
70546;BME280;58098;51.680;5.134;2023-11-18T03:35:02;102321.41;;;4.36;100.00
70546;BME280;58098;51.680;5.134;2023-11-18T03:37:29;102302.63;;;4.31;100.00
70546;BME280;58098;51.680;5.134;2023-11-18T03:39:55;102311.00;;;4.39;100.00
70546;BME280;58098;51.680;5.134;2023-11-18T03:42:20;102287.19;;;4.30;100.00
70546;BME280;58098;51.680;5.134;2023-11-18T03:44:47;102277.72;;;4.29;100.00
70546;BME280;58098;51.680;5.134;2023-11-18T03:47:13;102278.41;;;4.35;100.00
70546;BME280;58098;51.680;5.134;2023-11-18T03:49:39;102282.75;;;4.33;100.00
70546;BME280;58098;51.680;5.134;2023-11-18T03:52:04;102289.56;;;4.36;100.00
70546;BME280;58098;51.680;5.134;2023-11-18T03:54:31;102279.22;;;4.36;100.00
70546;BME280;58098;51.680;5.134;2023-11-18T03:56:56;102264.56;;;4.36;100.00
70546;BME280;58098;51.680;5.134;2023-11-18T03:59:21;102229.63;;;4.25;100.00
70546;BME280;58098;51.680;5.134;2023-11-18T04:01:46;102253.31;;;4.39;100.00
70546;BME280;58098;51.680;5.134;2023-11-18T04:04:14;102252.38;;;4.41;100.00
70546;BME280;58098;51.680;5.134;2023-11-18T04:06:39;102254.06;;;4.42;100.00
70546;BME280;58098;51.680;5.134;2023-11-18T04:09:04;102262.63;;;4.44;100.00
70546;BME280;58098;51.680;5.134;2023-11-18T04:11:31;102278.03;;;4.47;100.00
70546;BME280;58098;51.680;5.134;2023-11-18T04:13:56;102255.88;;;4.39;100.00
70546;BME280;58098;51.680;5.134;2023-11-18T04:16:21;102245.63;;;4.37;100.00
70546;BME280;58098;51.680;5.134;2023-11-18T04:18:47;102256.44;;;4.48;100.00
70546;BME280;58098;51.680;5.134;2023-11-18T04:21:13;102254.78;;;4.47;100.00
70546;BME280;58098;51.680;5.134;2023-11-18T04:23:42;102249.50;;;4.50;100.00
70546;BME280;58098;51.680;5.134;2023-11-18T04:26:08;102243.53;;;4.48;100.00
70546;BME280;58098;51.680;5.134;2023-11-18T04:28:34;102213.53;;;4.44;100.00
70546;BME280;58098;51.680;5.134;2023-11-18T04:31:00;102242.59;;;4.51;100.00
70546;BME280;58098;51.680;5.134;2023-11-18T04:33:26;102227.06;;;4.52;100.00
70546;BME280;58098;51.680;5.134;2023-11-18T04:35:51;102221.88;;;4.52;100.00
70546;BME280;58098;51.680;5.134;2023-11-18T04:38:20;102221.75;;;4.57;100.00
70546;BME280;58098;51.680;5.134;2023-11-18T04:40:46;102211.50;;;4.54;100.00
70546;BME280;58098;51.680;5.134;2023-11-18T04:43:12;102209.53;;;4.60;100.00
70546;BME280;58098;51.680;5.134;2023-11-18T04:45:38;102202.69;;;4.59;100.00
70546;BME280;58098;51.680;5.134;2023-11-18T04:48:04;102190.47;;;4.64;100.00
70546;BME280;58098;51.680;5.134;2023-11-18T04:50:30;102173.56;;;4.54;100.00
70546;BME280;58098;51.680;5.134;2023-11-18T04:52:57;102181.91;;;4.62;100.00
70546;BME280;58098;51.680;5.134;2023-11-18T04:55:22;102196.34;;;4.70;100.00
70546;BME280;58098;51.680;5.134;2023-11-18T04:57:47;102192.25;;;4.62;100.00
70546;BME280;58098;51.680;5.134;2023-11-18T05:00:13;102188.06;;;4.58;100.00
70546;BME280;58098;51.680;5.134;2023-11-18T05:02:42;102196.34;;;4.70;100.00
70546;BME280;58098;51.680;5.134;2023-11-18T05:05:08;102176.59;;;4.67;100.00
70546;BME280;58098;51.680;5.134;2023-11-18T05:07:34;102174.06;;;4.65;100.00
70546;BME280;58098;51.680;5.134;2023-11-18T05:10:00;102185.84;;;4.74;100.00
70546;BME280;58098;51.680;5.134;2023-11-18T05:12:26;102173.88;;;4.72;100.00
70546;BME280;58098;51.680;5.134;2023-11-18T05:14:51;102162.78;;;4.68;100.00
70546;BME280;58098;51.680;5.134;2023-11-18T05:17:17;102146.41;;;4.67;100.00
70546;BME280;58098;51.680;5.134;2023-11-18T05:19:43;102167.59;;;4.79;100.00
70546;BME280;58098;51.680;5.134;2023-11-18T05:22:08;102148.81;;;4.74;100.00
70546;BME280;58098;51.680;5.134;2023-11-18T05:24:34;102153.06;;;4.75;100.00
70546;BME280;58098;51.680;5.134;2023-11-18T05:26:59;102159.84;;;4.79;100.00
70546;BME280;58098;51.680;5.134;2023-11-18T05:29:28;102141.38;;;4.64;100.00
70546;BME280;58098;51.680;5.134;2023-11-18T05:31:54;102153.28;;;4.68;100.00
70546;BME280;58098;51.680;5.134;2023-11-18T05:34:22;102164.25;;;4.75;100.00
70546;BME280;58098;51.680;5.134;2023-11-18T05:36:48;102139.34;;;4.73;100.00
70546;BME280;58098;51.680;5.134;2023-11-18T05:39:16;102149.28;;;4.85;100.00
70546;BME280;58098;51.680;5.134;2023-11-18T05:41:41;102117.00;;;4.72;100.00
70546;BME280;58098;51.680;5.134;2023-11-18T05:44:11;102133.22;;;4.75;100.00
70546;BME280;58098;51.680;5.134;2023-11-18T05:46:42;102127.19;;;4.76;100.00
70546;BME280;58098;51.680;5.134;2023-11-18T05:49:09;102136.41;;;4.83;100.00
70546;BME280;58098;51.680;5.134;2023-11-18T05:51:34;102126.25;;;4.77;100.00
70546;BME280;58098;51.680;5.134;2023-11-18T05:54:00;102139.06;;;4.82;100.00
70546;BME280;58098;51.680;5.134;2023-11-18T05:56:26;102120.03;;;4.83;100.00
70546;BME280;58098;51.680;5.134;2023-11-18T05:58:52;102121.84;;;4.81;100.00
70546;BME280;58098;51.680;5.134;2023-11-18T06:01:20;102115.03;;;4.78;100.00
70546;BME280;58098;51.680;5.134;2023-11-18T06:03:46;102107.28;;;4.78;100.00
70546;BME280;58098;51.680;5.134;2023-11-18T06:06:13;102090.03;;;4.79;100.00
70546;BME280;58098;51.680;5.134;2023-11-18T06:08:41;102078.94;;;4.75;100.00
70546;BME280;58098;51.680;5.134;2023-11-18T06:11:11;102099.34;;;4.83;100.00
70546;BME280;58098;51.680;5.134;2023-11-18T06:13:51;102109.78;;;4.80;100.00
70546;BME280;58098;51.680;5.134;2023-11-18T06:16:17;102127.53;;;4.90;100.00
70546;BME280;58098;51.680;5.134;2023-11-18T06:18:46;102107.34;;;4.77;100.00
70546;BME280;58098;51.680;5.134;2023-11-18T06:21:19;102102.97;;;4.79;100.00
70546;BME280;58098;51.680;5.134;2023-11-18T06:23:46;102108.03;;;4.82;100.00
70546;BME280;58098;51.680;5.134;2023-11-18T06:26:13;102109.59;;;4.86;100.00
70546;BME280;58098;51.680;5.134;2023-11-18T06:28:40;102106.91;;;4.89;100.00
70546;BME280;58098;51.680;5.134;2023-11-18T06:31:05;102103.38;;;4.91;100.00
70546;BME280;58098;51.680;5.134;2023-11-18T06:33:36;102087.44;;;4.79;100.00
70546;BME280;58098;51.680;5.134;2023-11-18T06:36:03;102104.09;;;4.95;100.00
70546;BME280;58098;51.680;5.134;2023-11-18T06:38:29;102089.94;;;4.82;100.00
70546;BME280;58098;51.680;5.134;2023-11-18T06:40:55;102105.84;;;4.94;100.00
70546;BME280;58098;51.680;5.134;2023-11-18T06:43:21;102097.38;;;4.89;100.00
70546;BME280;58098;51.680;5.134;2023-11-18T06:45:47;102105.81;;;4.96;100.00
70546;BME280;58098;51.680;5.134;2023-11-18T06:48:14;102092.13;;;4.92;100.00
70546;BME280;58098;51.680;5.134;2023-11-18T06:50:40;102077.63;;;4.88;100.00
70546;BME280;58098;51.680;5.134;2023-11-18T06:53:09;102094.59;;;4.95;100.00
70546;BME280;58098;51.680;5.134;2023-11-18T06:55:36;102078.41;;;4.90;100.00
70546;BME280;58098;51.680;5.134;2023-11-18T06:58:01;102091.84;;;5.00;100.00
70546;BME280;58098;51.680;5.134;2023-11-18T07:00:27;102064.84;;;4.84;100.00
70546;BME280;58098;51.680;5.134;2023-11-18T07:02:54;102077.53;;;4.91;100.00
70546;BME280;58098;51.680;5.134;2023-11-18T07:05:19;102078.34;;;4.92;100.00
70546;BME280;58098;51.680;5.134;2023-11-18T07:07:45;102093.47;;;5.02;100.00
70546;BME280;58098;51.680;5.134;2023-11-18T07:10:11;102074.75;;;4.96;100.00
70546;BME280;58098;51.680;5.134;2023-11-18T07:12:38;102084.84;;;5.03;100.00
70546;BME280;58098;51.680;5.134;2023-11-18T07:15:05;102081.59;;;4.97;100.00
70546;BME280;58098;51.680;5.134;2023-11-18T07:17:30;102091.56;;;5.07;100.00
70546;BME280;58098;51.680;5.134;2023-11-18T07:19:56;102091.56;;;5.07;100.00
70546;BME280;58098;51.680;5.134;2023-11-18T07:22:21;102085.78;;;5.01;100.00
70546;BME280;58098;51.680;5.134;2023-11-18T07:24:46;102090.81;;;5.04;100.00
70546;BME280;58098;51.680;5.134;2023-11-18T07:27:12;102086.50;;;5.04;100.00
70546;BME280;58098;51.680;5.134;2023-11-18T07:29:38;102096.66;;;5.10;100.00
70546;BME280;58098;51.680;5.134;2023-11-18T07:32:04;102098.28;;;5.13;100.00
70546;BME280;58098;51.680;5.134;2023-11-18T07:34:31;102101.75;;;5.12;100.00
70546;BME280;58098;51.680;5.134;2023-11-18T07:36:58;102091.50;;;5.09;100.00
70546;BME280;58098;51.680;5.134;2023-11-18T07:39:23;102084.59;;;5.09;100.00
70546;BME280;58098;51.680;5.134;2023-11-18T07:41:50;102094.75;;;5.15;100.00
70546;BME280;58098;51.680;5.134;2023-11-18T07:44:15;102092.16;;;5.15;100.00
70546;BME280;58098;51.680;5.134;2023-11-18T07:46:41;102098.91;;;5.19;100.00
70546;BME280;58098;51.680;5.134;2023-11-18T07:49:07;102113.34;;;5.25;100.00
70546;BME280;58098;51.680;5.134;2023-11-18T07:51:33;102109.84;;;5.26;100.00
70546;BME280;58098;51.680;5.134;2023-11-18T07:53:58;102108.09;;;5.28;100.00
70546;BME280;58098;51.680;5.134;2023-11-18T07:56:23;102109.75;;;5.29;100.00
70546;BME280;58098;51.680;5.134;2023-11-18T07:58:49;102111.38;;;5.31;100.00
70546;BME280;58098;51.680;5.134;2023-11-18T08:01:15;102085.69;;;5.27;100.00
70546;BME280;58098;51.680;5.134;2023-11-18T08:03:43;102094.97;;;5.32;100.00
70546;BME280;58098;51.680;5.134;2023-11-18T08:06:10;102108.50;;;5.39;100.00
70546;BME280;58098;51.680;5.134;2023-11-18T08:08:37;102094.00;;;5.35;100.00
70546;BME280;58098;51.680;5.134;2023-11-18T08:11:04;102092.91;;;5.41;100.00
70546;BME280;58098;51.680;5.134;2023-11-18T08:13:29;102071.53;;;5.35;100.00
70546;BME280;58098;51.680;5.134;2023-11-18T08:15:55;102073.91;;;5.42;100.00
70546;BME280;58098;51.680;5.134;2023-11-18T08:18:22;102090.78;;;5.52;100.00
70546;BME280;58098;51.680;5.134;2023-11-18T08:20:49;102078.91;;;5.46;100.00
70546;BME280;58098;51.680;5.134;2023-11-18T08:23:15;102094.91;;;5.57;100.00
70546;BME280;58098;51.680;5.134;2023-11-18T08:25:40;102086.38;;;5.54;100.00
70546;BME280;58098;51.680;5.134;2023-11-18T08:28:07;102068.28;;;5.54;100.00
70546;BME280;58098;51.680;5.134;2023-11-18T08:30:33;102076.53;;;5.63;100.00
70546;BME280;58098;51.680;5.134;2023-11-18T08:33:01;102066.16;;;5.63;100.00
70546;BME280;58098;51.680;5.134;2023-11-18T08:35:29;102056.59;;;5.65;100.00
70546;BME280;58098;51.680;5.134;2023-11-18T08:37:55;102061.66;;;5.68;100.00
70546;BME280;58098;51.680;5.134;2023-11-18T08:40:20;102035.94;;;5.64;100.00
70546;BME280;58098;51.680;5.134;2023-11-18T08:42:51;102057.06;;;5.75;100.00
70546;BME280;58098;51.680;5.134;2023-11-18T08:45:20;102047.56;;;5.75;100.00
70546;BME280;58098;51.680;5.134;2023-11-18T08:47:55;102043.16;;;5.77;100.00
70546;BME280;58098;51.680;5.134;2023-11-18T08:50:22;102028.66;;;5.73;100.00
70546;BME280;58098;51.680;5.134;2023-11-18T08:52:49;102030.09;;;5.80;100.00
70546;BME280;58098;51.680;5.134;2023-11-18T08:55:18;102022.13;;;5.86;100.00
70546;BME280;58098;51.680;5.134;2023-11-18T08:57:48;102019.59;;;5.85;100.00
70546;BME280;58098;51.680;5.134;2023-11-18T09:00:23;102018.69;;;5.86;100.00
70546;BME280;58098;51.680;5.134;2023-11-18T09:03:07;102017.84;;;5.85;100.00
70546;BME280;58098;51.680;5.134;2023-11-18T09:05:33;102014.34;;;5.86;100.00
70546;BME280;58098;51.680;5.134;2023-11-18T09:08:02;102009.03;;;5.89;100.00
70546;BME280;58098;51.680;5.134;2023-11-18T09:10:31;101994.69;;;5.81;100.00
70546;BME280;58098;51.680;5.134;2023-11-18T09:12:57;101986.97;;;5.79;100.00
70546;BME280;58098;51.680;5.134;2023-11-18T09:15:22;101996.03;;;5.91;100.00
70546;BME280;58098;51.680;5.134;2023-11-18T09:17:49;101971.88;;;5.90;100.00
70546;BME280;58098;51.680;5.134;2023-11-18T09:20:14;101968.19;;;5.96;100.00
70546;BME280;58098;51.680;5.134;2023-11-18T09:22:45;101977.44;;;6.02;100.00
70546;BME280;58098;51.680;5.134;2023-11-18T09:25:11;101957.00;;;5.95;100.00
70546;BME280;58098;51.680;5.134;2023-11-18T09:27:36;101955.81;;;6.03;100.00
70546;BME280;58098;51.680;5.134;2023-11-18T09:30:04;101963.31;;;6.09;100.00
70546;BME280;58098;51.680;5.134;2023-11-18T09:32:38;101931.22;;;5.92;100.00
70546;BME280;58098;51.680;5.134;2023-11-18T09:35:04;101966.31;;;6.20;100.00
70546;BME280;58098;51.680;5.134;2023-11-18T09:37:34;101969.56;;;6.25;100.00
70546;BME280;58098;51.680;5.134;2023-11-18T09:40:00;101952.19;;;6.27;100.00
70546;BME280;58098;51.680;5.134;2023-11-18T09:42:39;101958.66;;;6.37;100.00
70546;BME280;58098;51.680;5.134;2023-11-18T09:45:05;101962.03;;;6.39;100.00
70546;BME280;58098;51.680;5.134;2023-11-18T09:47:43;101961.03;;;6.41;100.00
70546;BME280;58098;51.680;5.134;2023-11-18T09:50:17;101925.97;;;6.33;100.00
70546;BME280;58098;51.680;5.134;2023-11-18T09:52:48;101946.22;;;6.45;100.00
70546;BME280;58098;51.680;5.134;2023-11-18T09:55:29;101918.84;;;6.38;100.00
70546;BME280;58098;51.680;5.134;2023-11-18T09:58:03;101920.97;;;6.48;100.00
70546;BME280;58098;51.680;5.134;2023-11-18T10:00:31;101911.47;;;6.49;100.00
70546;BME280;58098;51.680;5.134;2023-11-18T10:02:58;101914.72;;;6.52;100.00
70546;BME280;58098;51.680;5.134;2023-11-18T10:05:26;101917.63;;;6.65;100.00
70546;BME280;58098;51.680;5.134;2023-11-18T10:07:52;101907.19;;;6.67;100.00
70546;BME280;58098;51.680;5.134;2023-11-18T10:10:19;101891.44;;;6.71;100.00
70546;BME280;58098;51.680;5.134;2023-11-18T10:12:47;101896.19;;;6.80;100.00
70546;BME280;58098;51.680;5.134;2023-11-18T10:15:18;101893.31;;;6.86;100.00
70546;BME280;58098;51.680;5.134;2023-11-18T10:17:49;101885.66;;;6.83;100.00
70546;BME280;58098;51.680;5.134;2023-11-18T10:20:23;101894.06;;;6.88;100.00
70546;BME280;58098;51.680;5.134;2023-11-18T10:23:18;101901.34;;;6.99;100.00
70546;BME280;58098;51.680;5.134;2023-11-18T10:28:32;101871.19;;;6.96;100.00
70546;BME280;58098;51.680;5.134;2023-11-18T10:30:59;101874.28;;;7.04;100.00
70546;BME280;58098;51.680;5.134;2023-11-18T10:33:36;101875.66;;;7.11;100.00
70546;BME280;58098;51.680;5.134;2023-11-18T10:36:03;101860.41;;;7.05;100.00
70546;BME280;58098;51.680;5.134;2023-11-18T10:38:39;101882.09;;;7.21;100.00
70546;BME280;58098;51.680;5.134;2023-11-18T10:41:15;101848.72;;;7.14;100.00
70546;BME280;58098;51.680;5.134;2023-11-18T10:43:42;101850.03;;;7.22;100.00
70546;BME280;58098;51.680;5.134;2023-11-18T10:46:10;101857.66;;;7.25;100.00
70546;BME280;58098;51.680;5.134;2023-11-18T10:48:48;101850.25;;;7.18;100.00
70546;BME280;58098;51.680;5.134;2023-11-18T10:51:18;101865.44;;;7.25;100.00
70546;BME280;58098;51.680;5.134;2023-11-18T10:53:52;101848.44;;;7.20;100.00
70546;BME280;58098;51.680;5.134;2023-11-18T10:56:19;101837.22;;;7.19;100.00
70546;BME280;58098;51.680;5.134;2023-11-18T10:58:50;101841.25;;;7.25;100.00
70546;BME280;58098;51.680;5.134;2023-11-18T11:01:16;101847.28;;;7.25;100.00
70546;BME280;58098;51.680;5.134;2023-11-18T11:03:53;101820.66;;;7.22;100.00
70546;BME280;58098;51.680;5.134;2023-11-18T11:06:25;101822.03;;;7.29;100.00
70546;BME280;58098;51.680;5.134;2023-11-18T11:08:51;101810.78;;;7.28;100.00
70546;BME280;58098;51.680;5.134;2023-11-18T11:11:21;101793.56;;;7.27;100.00
70546;BME280;58098;51.680;5.134;2023-11-18T11:13:53;101800.13;;;7.35;100.00
70546;BME280;58098;51.680;5.134;2023-11-18T11:16:23;101787.88;;;7.37;100.00
70546;BME280;58098;51.680;5.134;2023-11-18T11:18:55;101782.69;;;7.37;100.00
70546;BME280;58098;51.680;5.134;2023-11-18T11:21:26;101780.56;;;7.45;100.00
70546;BME280;58098;51.680;5.134;2023-11-18T11:24:06;101761.44;;;7.46;100.00
70546;BME280;58098;51.680;5.134;2023-11-18T11:26:52;101729.44;;;7.45;100.00
70546;BME280;58098;51.680;5.134;2023-11-18T11:32:14;101707.44;;;7.52;100.00
70546;BME280;58098;51.680;5.134;2023-11-18T11:35:00;101661.59;;;7.36;100.00
70546;BME280;58098;51.680;5.134;2023-11-18T11:37:33;101690.78;;;7.56;100.00
70546;BME280;58098;51.680;5.134;2023-11-18T11:40:02;101673.47;;;7.57;100.00
70546;BME280;58098;51.680;5.134;2023-11-18T11:42:34;101677.41;;;7.64;100.00
70546;BME280;58098;51.680;5.134;2023-11-18T11:45:00;101669.44;;;7.67;100.00
70546;BME280;58098;51.680;5.134;2023-11-18T11:47:30;101656.44;;;7.67;100.00
70546;BME280;58098;51.680;5.134;2023-11-18T11:50:12;101652.78;;;7.71;100.00
70546;BME280;58098;51.680;5.134;2023-11-18T11:52:50;101658.72;;;7.73;100.00
70546;BME280;58098;51.680;5.134;2023-11-18T11:55:26;101652.44;;;7.77;100.00
70546;BME280;58098;51.680;5.134;2023-11-18T11:57:55;101649.09;;;7.75;100.00
70546;BME280;58098;51.680;5.134;2023-11-18T12:00:24;101650.78;;;7.76;100.00
70546;BME280;58098;51.680;5.134;2023-11-18T12:02:52;101644.56;;;7.78;100.00
70546;BME280;58098;51.680;5.134;2023-11-18T12:05:23;101638.38;;;7.81;100.00
70546;BME280;58098;51.680;5.134;2023-11-18T12:07:52;101623.78;;;7.78;100.00
70546;BME280;58098;51.680;5.134;2023-11-18T12:10:19;101610.88;;;7.77;100.00
70546;BME280;58098;51.680;5.134;2023-11-18T12:12:48;101590.34;;;7.72;100.00
70546;BME280;58098;51.680;5.134;2023-11-18T12:15:13;101589.81;;;7.81;100.00
70546;BME280;58098;51.680;5.134;2023-11-18T12:23:15;101566.59;;;7.94;100.00
70546;BME280;58098;51.680;5.134;2023-11-18T12:25:44;101569.28;;;7.92;100.00
70546;BME280;58098;51.680;5.134;2023-11-18T12:28:17;101564.59;;;7.99;100.00
70546;BME280;58098;51.680;5.134;2023-11-18T12:30:46;101540.47;;;7.81;100.00
70546;BME280;58098;51.680;5.134;2023-11-18T12:33:21;101533.75;;;7.93;100.00
70546;BME280;58098;51.680;5.134;2023-11-18T12:38:45;101491.47;;;8.05;100.00
70546;BME280;58098;51.680;5.134;2023-11-18T12:46:54;101466.13;;;8.09;100.00
70546;BME280;58098;51.680;5.134;2023-11-18T12:49:37;101453.81;;;8.12;100.00
70546;BME280;58098;51.680;5.134;2023-11-18T12:52:07;101434.78;;;8.12;100.00
70546;BME280;58098;51.680;5.134;2023-11-18T12:54:33;101427.25;;;8.07;100.00
70546;BME280;58098;51.680;5.134;2023-11-18T12:57:02;101425.56;;;8.06;100.00
70546;BME280;58098;51.680;5.134;2023-11-18T12:59:28;101431.72;;;8.05;100.00
70546;BME280;58098;51.680;5.134;2023-11-18T13:01:55;101435.78;;;8.09;100.00
70546;BME280;58098;51.680;5.134;2023-11-18T13:04:23;101429.09;;;8.05;100.00
70546;BME280;58098;51.680;5.134;2023-11-18T13:06:50;101432.53;;;8.06;100.00
70546;BME280;58098;51.680;5.134;2023-11-18T13:09:17;101427.81;;;8.12;100.00
70546;BME280;58098;51.680;5.134;2023-11-18T13:11:55;101399.75;;;8.03;100.00
70546;BME280;58098;51.680;5.134;2023-11-18T13:14:27;101421.50;;;8.16;100.00